Estación Meteorológica Peña el Pijo (Robertgarden) [ 02/03/23 04:45:35 CET ]

Fecha Hora Presion(HPa) Temp (°C) Humedad % Rocio (°C) Viento ( m/s) Direccion Lluvia 1Hora(mm) Lluvia 24H(mm) LLuvia Total(mm)
2010-Oct-16 01:01:12 1006.400 8.0 83 5.3         169.90
2010-Oct-16 02:01:14 1006.300 8.4 86 6.2         169.90
2010-Oct-16 03:03:14 1005.900 7.8 86 5.6         169.90
2010-Oct-16 04:01:13 1005.800 7.2 88 5.4         169.90
2010-Oct-16 05:01:12 1005.400 7.4 89 5.7         169.90
2010-Oct-16 06:01:13 1005.200 6.8 90 5.3         169.90
2010-Oct-16 07:01:11 1005.200 6.1 90 4.6         169.90
2010-Oct-16 08:01:12 1005.400 5.6 91 4.2         169.90
2010-Oct-16 09:01:17 1005.800 5.9 91 4.5         169.90
2010-Oct-16 10:01:14 1005.900 10.8 91 9.4         169.90
2010-Oct-16 11:01:16 1005.900 15.3 73 10.5         169.90
2010-Oct-16 12:01:13 1005.800 18.1 56 9.1         169.90
2010-Oct-16 13:01:13 1005.600 20.9 46 8.8         169.90
2010-Oct-16 14:01:11 1004.900 23.9 37 8.2         169.90
2010-Oct-16 15:01:16 1004.300 19.1 46 7.2         169.90
2010-Oct-16 16:01:21 1004.200 18.4 44 5.8         169.90
2010-Oct-16 17:01:18 1004.500 18.3 46 6.4         169.90
2010-Oct-16 18:01:13 1004.500 17.5 42 4.4         169.90
2010-Oct-16 19:01:14 1004.900 15.2 48 4.2         169.90
2010-Oct-16 20:01:17 1005.500 13.6 56 5.0         169.90
2010-Oct-16 21:01:21 1005.900 10.9 67 5.0         169.90
2010-Oct-16 22:01:14 1006.300 9.8 73 5.2         169.90
2010-Oct-16 23:01:19 1006.700 8.6 77 4.8         169.90

Temperatura Máxima:23°    Temperatura Mínima:
Presión Máxima:1006.700 Hpa    Presión Mínima:1004.200 Hpa


Volver